createdAt,value
2022-12-11T08:21:47.019Z,27.50
2022-12-11T08:22:46.933Z,28.10
2022-12-11T08:23:46.886Z,28.20
2022-12-11T08:24:46.834Z,26.60
2022-12-11T08:25:46.797Z,28.80
2022-12-11T08:26:46.723Z,29.40
2022-12-11T08:27:46.646Z,30.70
2022-12-11T08:28:46.591Z,26.70
2022-12-11T08:29:46.527Z,28.70
2022-12-11T08:30:46.499Z,26.30
2022-12-11T08:31:46.386Z,27.00
2022-12-11T08:32:46.376Z,27.20
2022-12-11T08:33:46.289Z,37.20
2022-12-11T08:34:46.202Z,48.40
2022-12-11T08:35:46.147Z,36.90
2022-12-11T08:36:46.066Z,33.50
2022-12-11T08:37:46.034Z,31.60
2022-12-11T08:38:45.955Z,38.40
2022-12-11T08:39:45.897Z,35.10
2022-12-11T08:40:45.807Z,37.70
2022-12-11T08:41:45.748Z,36.40
2022-12-11T08:42:45.678Z,42.60
2022-12-11T08:43:45.617Z,48.80
2022-12-11T08:44:45.517Z,35.00
2022-12-11T08:45:45.508Z,37.00
2022-12-11T08:46:45.387Z,34.80
2022-12-11T08:47:45.317Z,35.90
2022-12-11T08:48:45.301Z,38.10
2022-12-11T08:49:45.169Z,32.50
2022-12-11T08:50:45.097Z,35.20
2022-12-11T08:51:45.038Z,33.60
2022-12-11T08:52:44.978Z,35.10
2022-12-11T08:53:44.886Z,34.90
2022-12-11T08:54:44.820Z,33.30
2022-12-11T08:55:44.750Z,36.40
2022-12-11T08:56:44.667Z,36.40
2022-12-11T08:57:44.600Z,38.90
2022-12-11T08:58:44.539Z,38.10
2022-12-11T08:59:44.468Z,38.40
2022-12-11T09:00:44.381Z,44.20
2022-12-11T09:01:44.338Z,44.00
2022-12-11T09:02:44.272Z,39.00
2022-12-11T09:03:44.150Z,42.20
2022-12-11T09:04:44.112Z,40.50
2022-12-11T09:05:44.000Z,39.50
2022-12-11T09:06:43.920Z,37.10
2022-12-11T09:07:43.923Z,34.90
2022-12-11T09:08:48.577Z,38.40
2022-12-11T09:09:44.721Z,34.00
2022-12-11T09:10:43.631Z,37.00
2022-12-11T09:11:43.541Z,35.80
2022-12-11T09:12:43.481Z,35.60
2022-12-11T09:13:43.392Z,34.90
2022-12-11T09:14:43.322Z,33.10
2022-12-11T09:15:43.260Z,31.10
2022-12-11T09:16:43.184Z,34.70
2022-12-11T09:17:43.092Z,33.50
2022-12-11T09:18:43.023Z,33.50
2022-12-11T09:19:42.944Z,33.50
2022-12-11T09:20:42.873Z,33.80
2022-12-11T09:21:42.783Z,36.20
2022-12-11T09:22:42.704Z,36.60
2022-12-11T09:23:42.622Z,32.90
2022-12-11T09:24:42.543Z,34.80
2022-12-11T09:25:42.482Z,32.90
2022-12-11T09:26:42.404Z,34.50
2022-12-11T09:27:42.324Z,33.40
2022-12-11T09:28:46.321Z,38.00
2022-12-11T09:29:42.164Z,34.40
2022-12-11T09:30:42.165Z,32.10
2022-12-11T09:31:42.017Z,32.60
2022-12-11T09:32:41.934Z,31.90
2022-12-11T09:33:41.841Z,32.60
2022-12-11T09:34:41.765Z,33.20
2022-12-11T09:35:41.694Z,34.60
2022-12-11T09:36:41.615Z,35.30
2022-12-11T09:37:41.523Z,34.20
2022-12-11T09:38:41.474Z,35.60
2022-12-11T09:39:41.373Z,33.30
2022-12-11T09:40:41.306Z,32.00
2022-12-11T09:41:41.253Z,32.80
2022-12-11T09:42:41.127Z,31.10
2022-12-11T09:43:41.035Z,35.40
2022-12-11T09:44:40.979Z,32.40
2022-12-11T09:45:40.906Z,33.40
2022-12-11T09:46:40.902Z,30.90
2022-12-11T09:47:40.715Z,31.60
2022-12-11T09:48:40.648Z,30.40
2022-12-11T09:49:40.565Z,30.10
2022-12-11T09:50:40.474Z,30.70
2022-12-11T09:51:40.374Z,28.70
2022-12-11T09:52:40.288Z,32.50
2022-12-11T09:53:40.187Z,32.80
2022-12-11T09:54:40.113Z,29.70
2022-12-11T09:55:40.030Z,31.40
2022-12-11T09:56:39.947Z,29.50
2022-12-11T09:57:39.858Z,30.30
2022-12-11T09:58:39.777Z,29.80
2022-12-11T09:59:39.687Z,26.80
2022-12-11T10:00:39.609Z,29.10
2022-12-11T10:01:39.550Z,30.30
2022-12-11T10:02:39.514Z,29.40
2022-12-11T10:03:39.358Z,30.90
2022-12-11T10:04:39.309Z,30.90
2022-12-11T10:05:39.209Z,30.40
2022-12-11T10:06:39.128Z,32.70
2022-12-11T10:07:39.052Z,31.60
2022-12-11T10:08:38.989Z,34.60
2022-12-11T10:09:38.888Z,32.40
2022-12-11T10:10:38.828Z,31.80
2022-12-11T10:11:38.739Z,33.30
2022-12-11T10:12:38.678Z,30.80
2022-12-11T10:13:38.640Z,31.10
